Time,TemperatureF,DewpointF,PressureIn,WindDirection,WindDirectionDegrees,WindSpeedMPH,WindSpeedGustMPH,Humidity,HourlyPrecipIn,Conditions,Clouds,dailyrainin,SolarRadiationWatts/m^2,SoftwareType,DateUTC
2013-09-05 00:12:00,56.0,49.0,-100.00,NNE,15,0.0,0.0,76,0.00,,,0.00,0.000000,,2013-09-05 07:12:00,
2013-09-05 00:22:00,56.0,49.0,-100.00,NNE,15,0.0,0.0,76,0.00,,,0.00,0.000000,,2013-09-05 07:22:00,
2013-09-05 00:32:00,56.0,49.0,-100.00,NNE,15,0.0,0.0,76,0.00,,,0.00,0.000000,,2013-09-05 07:32:00,
2013-09-05 01:12:00,55.0,49.0,-100.00,North,4,0.0,0.0,79,0.00,,,0.00,0.000000,,2013-09-05 08:12:00,
2013-09-05 01:21:00,55.0,49.0,-100.00,North,4,0.0,0.0,79,0.00,,,0.00,0.000000,,2013-09-05 08:21:00,
2013-09-05 01:32:00,55.0,49.0,-100.00,North,4,0.0,0.0,79,0.00,,,0.00,0.000000,,2013-09-05 08:32:00,
2013-09-05 02:11:00,53.0,46.0,-100.00,North,7,0.0,0.0,77,0.00,,,0.00,0.000000,,2013-09-05 09:11:00,
2013-09-05 02:22:00,53.0,46.0,-100.00,North,7,0.0,0.0,77,0.00,,,0.00,0.000000,,2013-09-05 09:22:00,
2013-09-05 02:33:00,53.0,46.0,-100.00,North,7,0.0,0.0,77,0.00,,,0.00,0.000000,,2013-09-05 09:33:00,
2013-09-05 03:12:00,54.0,46.0,-100.00,NW,325,0.0,0.0,75,0.00,,,0.00,0.000000,,2013-09-05 10:12:00,
2013-09-05 03:23:00,54.0,46.0,-100.00,NW,325,0.0,0.0,75,0.00,,,0.00,0.000000,,2013-09-05 10:23:00,
2013-09-05 03:32:00,54.0,46.0,-100.00,NW,325,0.0,0.0,75,0.00,,,0.00,0.000000,,2013-09-05 10:32:00,
2013-09-05 04:12:00,54.0,47.0,-100.00,North,354,0.0,0.0,76,0.00,,,0.00,0.000000,,2013-09-05 11:12:00,
2013-09-05 04:21:00,54.0,47.0,-100.00,North,354,0.0,0.0,76,0.00,,,0.00,0.000000,,2013-09-05 11:21:00,
2013-09-05 04:33:00,54.0,47.0,-100.00,North,354,0.0,0.0,76,0.00,,,0.00,0.000000,,2013-09-05 11:33:00,
2013-09-05 05:12:00,54.0,48.0,-100.00,North,356,0.0,0.0,79,0.00,,,0.00,0.000000,,2013-09-05 12:12:00,
2013-09-05 05:21:00,54.0,48.0,-100.00,North,356,0.0,0.0,79,0.00,,,0.00,0.000000,,2013-09-05 12:21:00,
2013-09-05 05:32:00,54.0,48.0,-100.00,North,356,0.0,0.0,79,0.00,,,0.00,0.000000,,2013-09-05 12:32:00,
2013-09-05 06:12:00,55.0,49.0,-100.00,North,357,0.0,0.0,81,0.00,,,0.00,0.000000,,2013-09-05 13:12:00,
2013-09-05 06:21:00,55.0,49.0,-100.00,North,357,0.0,0.0,81,0.00,,,0.00,0.000000,,2013-09-05 13:21:00,
2013-09-05 06:32:00,55.0,49.0,-100.00,North,357,0.0,0.0,81,0.00,,,0.00,0.000000,,2013-09-05 13:32:00,
2013-09-05 07:12:00,57.0,50.0,-100.00,North,349,0.0,0.0,76,0.00,,,0.00,1.000000,,2013-09-05 14:12:00,
2013-09-05 07:22:00,57.0,50.0,-100.00,North,349,0.0,0.0,76,0.00,,,0.00,1.000000,,2013-09-05 14:22:00,
2013-09-05 07:32:00,57.0,50.0,-100.00,North,349,0.0,0.0,76,0.00,,,0.00,1.000000,,2013-09-05 14:32:00,
2013-09-05 08:11:00,66.0,49.0,-100.00,North,352,0.0,0.0,55,0.00,,,0.00,106.000000,,2013-09-05 15:11:00,
2013-09-05 17:12:00,77.0,44.0,-100.00,ESE,104,4.0,12.0,31,-99.99,,,0.00,437.000000,,2013-09-06 00:12:00,
2013-09-05 17:22:00,77.0,44.0,-100.00,ESE,104,4.0,12.0,31,-99.99,,,0.00,437.000000,,2013-09-06 00:22:00,
2013-09-05 17:32:00,77.0,44.0,-100.00,ESE,104,4.0,12.0,31,-99.99,,,0.00,437.000000,,2013-09-06 00:32:00,
2013-09-05 18:11:00,75.0,45.0,-100.00,ESE,104,4.0,11.0,35,0.00,,,0.00,378.000000,,2013-09-06 01:11:00,
2013-09-05 18:21:00,75.0,45.0,-100.00,ESE,104,4.0,11.0,35,0.00,,,0.00,378.000000,,2013-09-06 01:21:00,
2013-09-05 18:32:00,75.0,45.0,-100.00,ESE,104,4.0,11.0,35,0.00,,,0.00,378.000000,,2013-09-06 01:32:00,
2013-09-05 19:11:00,73.0,49.0,-100.00,SSW,200,3.0,11.0,42,0.00,,,0.00,146.000000,,2013-09-06 02:11:00,
2013-09-05 19:22:00,73.0,49.0,-100.00,SSW,200,3.0,11.0,42,0.00,,,0.00,146.000000,,2013-09-06 02:22:00,
2013-09-05 19:32:00,73.0,49.0,-100.00,SSW,200,3.0,11.0,42,0.00,,,0.00,146.000000,,2013-09-06 02:32:00,
2013-09-05 20:11:00,66.0,47.0,-100.00,ESE,114,0.0,7.0,50,0.00,,,0.00,25.000000,,2013-09-06 03:11:00,
2013-09-05 20:22:00,66.0,47.0,-100.00,ESE,114,0.0,7.0,50,0.00,,,0.00,25.000000,,2013-09-06 03:22:00,
2013-09-05 20:34:00,66.0,47.0,-100.00,ESE,114,0.0,7.0,50,0.00,,,0.00,25.000000,,2013-09-06 03:34:00,
2013-09-05 21:14:00,64.0,48.0,-100.00,NW,307,0.0,0.0,56,0.00,,,0.00,0.000000,,2013-09-06 04:14:00,
2013-09-05 21:23:00,64.0,48.0,-100.00,NW,307,0.0,0.0,56,0.00,,,0.00,0.000000,,2013-09-06 04:23:00,
2013-09-05 21:34:00,64.0,48.0,-100.00,NW,307,0.0,0.0,56,0.00,,,0.00,0.000000,,2013-09-06 04:34:00,
2013-09-05 22:12:00,59.0,46.0,-100.00,WSW,257,0.0,2.0,62,0.00,,,0.00,0.000000,,2013-09-06 05:12:00,
2013-09-05 22:23:00,59.0,46.0,-100.00,WSW,257,0.0,2.0,62,0.00,,,0.00,0.000000,,2013-09-06 05:23:00,
2013-09-05 22:34:00,59.0,46.0,-100.00,WSW,257,0.0,2.0,62,0.00,,,0.00,0.000000,,2013-09-06 05:34:00,
2013-09-05 23:11:00,58.0,47.0,-100.00,NE,36,0.0,2.0,66,0.00,,,0.00,0.000000,,2013-09-06 06:11:00,
2013-09-05 23:21:00,58.0,47.0,-100.00,NE,36,0.0,2.0,66,0.00,,,0.00,0.000000,,2013-09-06 06:21:00,
2013-09-05 23:32:00,58.0,47.0,-100.00,NE,36,0.0,2.0,66,0.00,,,0.00,0.000000,,2013-09-06 06:32:00,